createdAt,value
2018-10-11T00:01:04.529Z,6.63
2018-10-11T00:03:32.207Z,6.37
2018-10-11T00:05:59.854Z,6.47
2018-10-11T00:08:27.564Z,7.03
2018-10-11T00:10:55.266Z,6.43
2018-10-11T00:13:22.975Z,6.40
2018-10-11T00:15:50.710Z,6.60
2018-10-11T00:18:18.398Z,5.90
2018-10-11T00:20:46.075Z,6.90
2018-10-11T00:23:13.797Z,7.77
2018-10-11T00:25:41.458Z,8.07
2018-10-11T00:28:09.159Z,7.63
2018-10-11T00:30:36.906Z,7.33
2018-10-11T00:33:04.554Z,7.03
2018-10-11T00:35:32.228Z,9.03
2018-10-11T00:38:00.138Z,9.53
2018-10-11T00:40:27.817Z,8.53
2018-10-11T00:42:55.732Z,8.23
2018-10-11T00:45:24.056Z,8.57
2018-10-11T00:47:51.880Z,7.57
2018-10-11T00:50:19.555Z,8.37
2018-10-11T00:52:47.251Z,6.47
2018-10-11T00:55:14.900Z,7.43
2018-10-11T00:57:42.641Z,9.57
2018-10-11T01:00:10.385Z,8.73
2018-10-11T01:02:38.159Z,10.00
2018-10-11T01:05:06.321Z,8.83
2018-10-11T01:07:34.045Z,8.33
2018-10-11T01:10:01.796Z,7.27
2018-10-11T01:12:29.416Z,7.20
2018-10-11T01:14:57.085Z,8.17
2018-10-11T01:17:24.967Z,7.90
2018-10-11T01:19:52.736Z,7.73
2018-10-11T01:22:20.465Z,6.93
2018-10-11T01:24:48.145Z,7.80
2018-10-11T01:27:16.281Z,8.00
2018-10-11T01:29:44.039Z,7.23
2018-10-11T01:32:11.797Z,6.90
2018-10-11T01:34:39.475Z,9.37
2018-10-11T01:37:07.591Z,8.47
2018-10-11T01:39:35.341Z,7.33
2018-10-11T01:42:03.194Z,6.10
2018-10-11T01:44:30.887Z,6.50
2018-10-11T01:46:58.589Z,7.17
2018-10-11T01:49:26.291Z,8.87
2018-10-11T01:51:53.984Z,8.20
2018-10-11T01:54:21.726Z,7.10
2018-10-11T01:56:49.493Z,6.23
2018-10-11T01:59:17.235Z,6.20
2018-10-11T02:01:44.936Z,6.23
2018-10-11T02:04:12.641Z,7.83
2018-10-11T02:06:40.323Z,7.20
2018-10-11T02:09:08.061Z,6.73
2018-10-11T02:11:35.792Z,6.50
2018-10-11T02:14:03.584Z,5.70
2018-10-11T02:16:31.382Z,4.90
2018-10-11T02:18:59.113Z,5.73
2018-10-11T02:21:26.838Z,6.80
2018-10-11T02:23:54.633Z,6.30
2018-10-11T02:26:22.389Z,6.10
2018-10-11T02:28:50.845Z,7.60
2018-10-11T02:31:18.509Z,6.77
2018-10-11T02:33:46.228Z,7.73
2018-10-11T02:36:13.923Z,6.80
2018-10-11T02:38:41.661Z,6.50
2018-10-11T02:41:09.353Z,6.23
2018-10-11T02:43:37.090Z,6.00
2018-10-11T02:46:04.767Z,5.83
2018-10-11T02:48:32.428Z,5.83
2018-10-11T02:51:00.144Z,5.60
2018-10-11T02:53:27.910Z,6.50
2018-10-11T02:55:55.732Z,5.70
2018-10-11T02:58:34.711Z,7.57
2018-10-11T03:01:02.551Z,7.40
2018-10-11T03:03:30.308Z,6.30
2018-10-11T03:06:00.267Z,6.10
2018-10-11T03:08:28.342Z,5.40
2018-10-11T03:10:56.437Z,6.13
2018-10-11T03:13:24.141Z,5.37
2018-10-11T03:15:51.844Z,5.40
2018-10-11T03:18:19.558Z,6.37
2018-10-11T03:20:47.290Z,6.67
2018-10-11T03:23:15.301Z,6.43
2018-10-11T03:25:44.319Z,6.23
2018-10-11T03:28:13.808Z,6.43
2018-10-11T03:30:42.264Z,6.37
2018-10-11T03:33:10.451Z,6.17
2018-10-11T03:35:38.563Z,5.60
2018-10-11T03:38:06.236Z,5.50
2018-10-11T03:40:33.904Z,5.27
2018-10-11T03:43:01.580Z,5.03
2018-10-11T03:45:29.300Z,4.87
2018-10-11T03:47:56.971Z,4.43
2018-10-11T03:50:25.181Z,5.03
2018-10-11T03:52:52.820Z,5.70
2018-10-11T03:55:20.508Z,6.40
2018-10-11T03:57:48.126Z,7.07
2018-10-11T04:00:15.800Z,7.40
2018-10-11T04:02:43.566Z,7.90
2018-10-11T04:05:11.323Z,7.20
2018-10-11T04:07:39.387Z,7.90
2018-10-11T04:10:07.086Z,7.80
2018-10-11T04:12:34.808Z,8.00
2018-10-11T04:15:02.568Z,7.13
2018-10-11T04:17:30.192Z,7.30
2018-10-11T04:19:58.068Z,6.87
2018-10-11T04:22:25.988Z,6.77
2018-10-11T04:24:53.776Z,7.10
2018-10-11T04:27:21.416Z,6.07
2018-10-11T04:29:49.140Z,7.20
2018-10-11T04:32:17.055Z,7.10
2018-10-11T04:34:44.693Z,6.67
2018-10-11T04:37:12.439Z,7.50
2018-10-11T04:39:40.356Z,7.20
2018-10-11T04:42:08.296Z,7.43
2018-10-11T04:44:36.520Z,6.70
2018-10-11T04:47:04.963Z,6.63
2018-10-11T04:49:32.831Z,6.53
2018-10-11T04:52:00.806Z,6.90
2018-10-11T04:54:28.384Z,6.17
2018-10-11T04:56:55.936Z,6.53
2018-10-11T04:59:23.906Z,6.03
2018-10-11T05:01:51.466Z,6.20
2018-10-11T05:04:19.097Z,6.17
2018-10-11T05:06:46.789Z,7.33
2018-10-11T05:09:14.361Z,7.10
2018-10-11T05:11:42.529Z,6.77
2018-10-11T05:14:12.524Z,6.80
2018-10-11T05:16:40.125Z,9.53
2018-10-11T05:19:08.176Z,9.90
2018-10-11T05:21:36.089Z,9.80
2018-10-11T05:24:03.640Z,8.87
2018-10-11T05:26:31.217Z,9.50
2018-10-11T05:28:59.017Z,9.53
2018-10-11T05:31:27.336Z,10.20
2018-10-11T05:33:54.942Z,9.33
2018-10-11T05:36:22.511Z,10.80
2018-10-11T05:38:50.073Z,9.77
2018-10-11T05:41:17.661Z,10.27
2018-10-11T05:43:45.341Z,10.47
2018-10-11T05:46:29.173Z,9.00
2018-10-11T05:48:57.788Z,8.60
2018-10-11T05:51:25.502Z,9.90
2018-10-11T05:53:54.300Z,10.30
2018-10-11T05:56:22.695Z,12.13
2018-10-11T05:58:50.503Z,11.60
2018-10-11T06:01:18.218Z,11.60
2018-10-11T06:03:46.420Z,11.13
2018-10-11T06:06:14.264Z,9.30
2018-10-11T06:08:42.062Z,11.23
2018-10-11T06:11:09.987Z,10.37
2018-10-11T06:13:37.768Z,8.70
2018-10-11T06:16:05.748Z,8.23
2018-10-11T06:18:33.424Z,7.60
2018-10-11T06:21:01.117Z,9.53
2018-10-11T06:23:29.111Z,9.27
2018-10-11T06:25:56.741Z,8.93
2018-10-11T06:28:24.745Z,8.57
2018-10-11T06:30:52.769Z,8.10
2018-10-11T06:33:20.431Z,7.50
2018-10-11T06:35:48.342Z,9.10
2018-10-11T06:38:16.249Z,10.70
2018-10-11T06:40:43.919Z,9.83
2018-10-11T06:43:11.573Z,8.97
2018-10-11T06:45:39.220Z,9.47
2018-10-11T06:48:09.092Z,9.03
2018-10-11T06:50:36.818Z,7.90
2018-10-11T06:53:04.507Z,7.97
2018-10-11T06:55:32.131Z,8.03
2018-10-11T06:57:59.794Z,14.73
2018-10-11T07:00:27.400Z,10.63
2018-10-11T07:02:54.989Z,10.20
2018-10-11T07:05:22.732Z,9.27
2018-10-11T07:07:50.345Z,8.57
2018-10-11T07:10:17.990Z,9.20
2018-10-11T07:12:45.592Z,8.90
2018-10-11T07:15:13.273Z,8.17
2018-10-11T07:17:41.117Z,8.97
2018-10-11T07:20:08.779Z,8.30
2018-10-11T07:22:36.340Z,7.77
2018-10-11T07:25:04.262Z,7.33
2018-10-11T07:27:31.869Z,6.43
2018-10-11T07:29:59.428Z,6.40
2018-10-11T07:32:27.269Z,6.40
2018-10-11T07:34:54.924Z,6.40
2018-10-11T07:37:22.525Z,6.57
2018-10-11T07:39:50.123Z,7.30
2018-10-11T07:42:17.740Z,7.30
2018-10-11T07:44:45.400Z,9.10
2018-10-11T07:47:13.064Z,8.23
2018-10-11T07:49:40.649Z,8.83
2018-10-11T07:52:08.296Z,7.63
2018-10-11T07:54:36.079Z,7.40
2018-10-11T07:57:04.090Z,6.97
2018-10-11T07:59:31.682Z,5.92
2018-10-11T08:01:59.281Z,4.85
2018-10-11T08:04:26.861Z,5.25
2018-10-11T08:06:54.492Z,8.63
2018-10-11T08:09:22.117Z,10.53
2018-10-11T08:11:49.873Z,10.00
2018-10-11T08:14:17.872Z,9.15
2018-10-11T08:16:46.033Z,9.33
2018-10-11T08:19:13.985Z,9.33
2018-10-11T08:21:41.452Z,10.82
2018-10-11T08:24:09.522Z,7.65
2018-10-11T08:26:37.366Z,7.30
2018-10-11T08:29:05.337Z,7.58
2018-10-11T08:31:32.933Z,10.80
2018-10-11T08:34:00.723Z,13.30
2018-10-11T08:36:28.296Z,14.90
2018-10-11T08:38:55.894Z,18.62
2018-10-11T08:41:23.654Z,19.87
2018-10-11T08:43:51.262Z,20.75
2018-10-11T08:46:18.868Z,22.73
2018-10-11T08:48:46.446Z,21.68
2018-10-11T08:51:14.195Z,21.70
2018-10-11T08:53:41.814Z,20.23
2018-10-11T08:56:09.467Z,19.23
2018-10-11T08:58:36.988Z,18.62
2018-10-11T09:01:04.557Z,17.27
2018-10-11T09:03:32.171Z,19.77
2018-10-11T09:05:59.746Z,17.27
2018-10-11T09:08:27.290Z,19.77
2018-10-11T09:10:55.085Z,23.92
2018-10-11T09:13:22.590Z,20.25
2018-10-11T09:15:50.236Z,20.10
2018-10-11T09:18:17.926Z,18.13
2018-10-11T09:20:45.506Z,14.53
2018-10-11T09:23:13.083Z,14.33
2018-10-11T09:25:40.681Z,14.63
2018-10-11T09:28:08.292Z,13.22
2018-10-11T09:30:35.898Z,13.45
2018-10-11T09:33:03.493Z,15.40
2018-10-11T09:35:31.077Z,13.70
2018-10-11T09:37:58.652Z,10.85
2018-10-11T09:40:26.187Z,10.55
2018-10-11T09:42:53.827Z,9.65
2018-10-11T09:45:21.424Z,12.73
2018-10-11T09:50:27.364Z,12.70
2018-10-11T09:52:54.969Z,12.18
2018-10-11T09:55:22.525Z,11.00
2018-10-11T09:57:50.383Z,11.08
2018-10-11T10:00:23.645Z,12.82
2018-10-11T10:02:51.553Z,12.73
2018-10-11T10:05:19.240Z,13.70
2018-10-11T10:07:46.854Z,11.15
2018-10-11T10:10:14.457Z,9.38
2018-10-11T10:12:42.085Z,8.73
2018-10-11T10:15:09.658Z,9.50
2018-10-11T10:17:37.276Z,9.75
2018-10-11T10:20:05.261Z,9.88
2018-10-11T10:22:32.960Z,9.25
2018-10-11T10:25:00.519Z,8.13
2018-10-11T10:27:28.170Z,11.45
2018-10-11T10:29:55.767Z,7.97
2018-10-11T10:32:23.417Z,8.88
2018-10-11T10:34:51.020Z,9.15
2018-10-11T10:37:19.024Z,9.23
2018-10-11T10:39:46.657Z,10.93
2018-10-11T10:42:14.181Z,12.20
2018-10-11T10:44:41.786Z,10.68
2018-10-11T10:47:09.565Z,9.48
2018-10-11T10:49:37.117Z,7.83
2018-10-11T10:52:04.727Z,9.18
2018-10-11T10:54:33.571Z,10.78
2018-10-11T10:57:01.489Z,8.00
2018-10-11T10:59:29.163Z,6.62
2018-10-11T11:01:56.839Z,8.75
2018-10-11T11:04:24.610Z,8.43
2018-10-11T11:06:52.290Z,7.78
2018-10-11T11:09:19.858Z,7.65
2018-10-11T11:11:47.610Z,9.43
2018-10-11T11:14:15.816Z,8.33
2018-10-11T11:16:44.116Z,7.40
2018-10-11T11:19:12.119Z,7.17
2018-10-11T11:21:39.824Z,7.62
2018-10-11T11:24:07.447Z,9.58
2018-10-11T11:26:35.117Z,9.95
2018-10-11T11:29:02.944Z,8.55
2018-10-11T11:31:31.020Z,6.72
2018-10-11T11:33:59.437Z,5.10
2018-10-11T11:36:27.716Z,6.40
2018-10-11T11:38:55.312Z,5.97
2018-10-11T11:41:22.899Z,6.42
2018-10-11T11:43:50.472Z,7.62
2018-10-11T11:46:18.072Z,8.68
2018-10-11T11:48:45.648Z,7.70
2018-10-11T11:51:13.372Z,6.62
2018-10-11T11:53:42.192Z,7.97
2018-10-11T11:56:09.977Z,7.03
2018-10-11T11:58:38.164Z,6.65
2018-10-11T12:01:05.928Z,5.70
2018-10-11T12:03:33.564Z,8.08
2018-10-11T12:06:01.294Z,7.80
2018-10-11T12:08:29.838Z,7.92
2018-10-11T12:10:57.612Z,6.42
2018-10-11T12:13:25.043Z,6.20
2018-10-11T12:15:52.597Z,5.28
2018-10-11T12:18:20.496Z,5.80
2018-10-11T12:20:48.071Z,6.17
2018-10-11T12:23:15.697Z,7.15
2018-10-11T12:25:43.300Z,7.72
2018-10-11T12:28:10.958Z,7.05
2018-10-11T12:30:38.564Z,6.62
2018-10-11T12:33:06.304Z,5.78
2018-10-11T12:35:33.856Z,10.80
2018-10-11T12:38:01.675Z,9.28
2018-10-11T12:40:29.230Z,8.53
2018-10-11T12:42:56.826Z,9.50
2018-10-11T12:45:24.490Z,10.30
2018-10-11T12:47:52.028Z,8.90
2018-10-11T12:50:19.621Z,9.90
2018-10-11T12:52:47.309Z,12.15
2018-10-11T12:55:15.104Z,11.43
2018-10-11T12:57:42.763Z,13.58
2018-10-11T13:00:12.990Z,11.95
2018-10-11T13:02:40.630Z,11.40
2018-10-11T13:05:08.383Z,13.13
2018-10-11T13:07:35.970Z,10.98
2018-10-11T13:10:03.956Z,11.05
2018-10-11T13:12:31.736Z,10.13
2018-10-11T13:14:59.290Z,10.15
2018-10-11T13:17:27.203Z,10.23
2018-10-11T13:19:54.924Z,9.88
2018-10-11T13:22:22.570Z,8.80
2018-10-11T13:24:50.210Z,7.22
2018-10-11T13:27:17.797Z,8.40
2018-10-11T13:29:45.464Z,11.75
2018-10-11T13:32:14.016Z,11.12
2018-10-11T13:34:41.690Z,11.03
2018-10-11T13:37:09.284Z,9.03
2018-10-11T13:39:37.102Z,7.95
2018-10-11T13:42:04.672Z,8.45
2018-10-11T13:44:32.321Z,10.05
2018-10-11T13:47:00.001Z,9.23
2018-10-11T13:49:27.572Z,11.48
2018-10-11T13:51:55.279Z,9.35
2018-10-11T13:54:22.857Z,8.13
2018-10-11T13:56:55.534Z,8.38
2018-10-11T13:59:18.092Z,8.23
2018-10-11T14:01:45.801Z,9.70
2018-10-11T14:04:13.444Z,10.68
2018-10-11T14:06:41.016Z,10.82
2018-10-11T14:09:10.218Z,10.93
2018-10-11T14:11:38.376Z,9.78
2018-10-11T14:14:05.995Z,8.43
2018-10-11T14:16:33.579Z,8.80
2018-10-11T14:19:01.261Z,8.15
2018-10-11T14:21:29.061Z,9.65
2018-10-11T14:23:57.052Z,11.68
2018-10-11T14:26:24.643Z,10.30
2018-10-11T14:28:52.519Z,9.78
2018-10-11T14:31:21.016Z,8.20
2018-10-11T14:33:48.588Z,9.08
2018-10-11T14:36:16.573Z,9.43
2018-10-11T14:38:44.108Z,9.45
2018-10-11T14:41:11.709Z,9.93
2018-10-11T14:43:39.311Z,8.65
2018-10-11T14:46:07.236Z,8.85
2018-10-11T14:48:34.839Z,7.65
2018-10-11T14:51:02.550Z,6.73
2018-10-11T14:53:30.056Z,6.30
2018-10-11T14:55:57.660Z,7.35
2018-10-11T14:58:25.233Z,8.38
2018-10-11T15:00:52.832Z,7.83
2018-10-11T15:03:20.484Z,6.58
2018-10-11T15:05:48.033Z,6.40
2018-10-11T15:08:15.594Z,5.95
2018-10-11T15:10:43.228Z,4.47
2018-10-11T15:13:10.811Z,5.40
2018-10-11T15:15:38.408Z,5.97
2018-10-11T15:18:06.174Z,5.78
2018-10-11T15:20:33.744Z,6.22
2018-10-11T15:23:01.336Z,5.15
2018-10-11T15:25:28.972Z,4.90
2018-10-11T15:27:56.601Z,14.00
2018-10-11T15:30:24.161Z,18.75
2018-10-11T15:32:51.795Z,15.05
2018-10-11T15:35:19.339Z,11.40
2018-10-11T15:37:46.929Z,9.93
2018-10-11T15:40:14.731Z,7.72
2018-10-11T15:42:42.348Z,6.75
2018-10-11T15:45:09.901Z,5.90
2018-10-11T15:47:37.652Z,5.08
2018-10-11T15:50:05.520Z,4.87
2018-10-11T15:52:33.335Z,4.70
2018-10-11T15:55:01.010Z,4.30
2018-10-11T15:57:28.602Z,4.20
2018-10-11T15:59:56.174Z,4.15
2018-10-11T16:02:24.014Z,4.92
2018-10-11T16:04:51.652Z,4.15
2018-10-11T16:07:19.262Z,4.35
2018-10-11T16:09:46.885Z,4.22
2018-10-11T16:12:14.471Z,4.50
2018-10-11T16:14:42.341Z,4.22
2018-10-11T16:17:09.929Z,6.00
2018-10-11T16:19:37.542Z,5.30
2018-10-11T16:22:05.116Z,5.10
2018-10-11T16:24:32.757Z,4.93
2018-10-11T16:27:00.335Z,4.30
2018-10-11T16:29:27.936Z,4.47
2018-10-11T16:31:55.635Z,4.60
2018-10-11T16:34:23.480Z,4.80
2018-10-11T16:36:51.025Z,4.08
2018-10-11T16:39:18.624Z,5.08
2018-10-11T16:41:46.300Z,5.05
2018-10-11T16:44:13.943Z,5.12
2018-10-11T16:46:41.494Z,4.12
2018-10-11T16:49:09.311Z,4.33
2018-10-11T16:51:37.449Z,6.75
2018-10-11T16:54:05.041Z,7.45
2018-10-11T16:56:32.640Z,7.22
2018-10-11T16:59:00.192Z,8.10
2018-10-11T17:01:27.803Z,6.80
2018-10-11T17:03:55.456Z,6.12
2018-10-11T17:06:23.016Z,5.78
2018-10-11T17:08:50.572Z,6.43
2018-10-11T17:11:18.168Z,5.15
2018-10-11T17:13:45.855Z,5.87
2018-10-11T17:16:13.473Z,5.65
2018-10-11T17:18:41.048Z,6.20
2018-10-11T17:21:08.769Z,5.37
2018-10-11T17:23:36.385Z,5.87
2018-10-11T17:26:04.977Z,6.12
2018-10-11T17:28:32.593Z,5.50
2018-10-11T17:31:00.136Z,5.67
2018-10-11T17:33:27.760Z,4.95
2018-10-11T17:35:56.093Z,4.87
2018-10-11T17:38:23.666Z,4.78
2018-10-11T17:40:51.276Z,5.45
2018-10-11T17:43:18.910Z,5.60
2018-10-11T17:45:46.502Z,5.33
2018-10-11T17:48:14.125Z,5.47
2018-10-11T17:50:41.753Z,6.87
2018-10-11T17:53:09.661Z,8.40
2018-10-11T17:55:37.192Z,8.85
2018-10-11T17:58:05.093Z,8.38
2018-10-11T18:00:32.756Z,7.80
2018-10-11T18:03:00.381Z,8.00
2018-10-11T18:05:27.969Z,7.42
2018-10-11T18:07:55.582Z,6.47
2018-10-11T18:10:23.157Z,6.30
2018-10-11T18:12:50.921Z,6.28
2018-10-11T18:15:18.712Z,5.00
2018-10-11T18:17:46.628Z,5.15
2018-10-11T18:20:14.197Z,5.60
2018-10-11T18:22:41.768Z,6.17
2018-10-11T18:25:09.389Z,6.17
2018-10-11T18:27:37.011Z,5.97
2018-10-11T18:30:05.020Z,6.03
2018-10-11T18:32:32.626Z,6.33
2018-10-11T18:35:00.283Z,6.00
2018-10-11T18:37:28.134Z,5.53
2018-10-11T18:39:55.754Z,5.53
2018-10-11T18:42:23.461Z,4.95
2018-10-11T18:44:51.387Z,5.12
2018-10-11T18:47:18.881Z,5.05
2018-10-11T18:49:46.498Z,5.05
2018-10-11T18:52:14.150Z,4.60
2018-10-11T18:54:41.728Z,5.03
2018-10-11T18:57:09.467Z,6.15
2018-10-11T18:59:37.048Z,6.42
2018-10-11T19:02:04.633Z,5.80
2018-10-11T19:04:32.237Z,5.65
2018-10-11T19:06:59.890Z,5.78
2018-10-11T19:09:27.461Z,6.20
2018-10-11T19:11:55.113Z,6.03
2018-10-11T19:14:23.025Z,6.47
2018-10-11T19:16:50.632Z,5.90
2018-10-11T19:19:19.052Z,5.45
2018-10-11T19:21:46.620Z,6.12
2018-10-11T19:24:14.172Z,5.53
2018-10-11T19:26:41.911Z,6.65
2018-10-11T19:29:09.509Z,6.30
2018-10-11T19:31:37.102Z,6.15
2018-10-11T19:34:04.712Z,6.00
2018-10-11T19:36:32.288Z,6.12
2018-10-11T19:39:00.636Z,6.00
2018-10-11T19:41:28.168Z,7.22
2018-10-11T19:43:55.798Z,8.75
2018-10-11T19:46:23.508Z,9.40
2018-10-11T19:48:51.090Z,8.13
2018-10-11T19:51:18.647Z,7.67
2018-10-11T19:53:46.260Z,7.37
2018-10-11T19:56:13.930Z,6.95
2018-10-11T19:58:41.459Z,6.90
2018-10-11T20:01:09.320Z,7.67
2018-10-11T20:03:36.949Z,6.40
2018-10-11T20:06:04.576Z,6.10
2018-10-11T20:08:32.224Z,6.30
2018-10-11T20:10:59.913Z,6.47
2018-10-11T20:13:27.508Z,5.87
2018-10-11T20:15:55.097Z,5.53
2018-10-11T20:18:22.722Z,5.83
2018-10-11T20:20:50.454Z,6.28
2018-10-11T20:23:18.064Z,6.80
2018-10-11T20:25:45.737Z,6.70
2018-10-11T20:28:13.279Z,6.30
2018-10-11T20:30:40.936Z,7.10
2018-10-11T20:33:08.690Z,6.55
2018-10-11T20:35:36.278Z,7.15
2018-10-11T20:38:03.941Z,5.92
2018-10-11T20:40:31.637Z,5.90
2018-10-11T20:42:59.221Z,5.53
2018-10-11T20:45:26.801Z,5.70
2018-10-11T20:47:54.393Z,5.92
2018-10-11T20:50:21.976Z,6.03
2018-10-11T20:52:49.557Z,6.42
2018-10-11T20:55:17.169Z,5.83
2018-10-11T20:57:44.836Z,5.75
2018-10-11T21:00:12.471Z,5.42
2018-10-11T21:02:40.064Z,5.30
2018-10-11T21:05:07.680Z,6.12
2018-10-11T21:07:35.284Z,6.78
2018-10-11T21:10:02.945Z,7.25
2018-10-11T21:12:30.547Z,7.45
2018-10-11T21:14:58.126Z,6.83
2018-10-11T21:17:25.681Z,6.50
2018-10-11T21:19:53.327Z,6.22
2018-10-11T21:22:20.896Z,5.95
2018-10-11T21:24:48.501Z,5.90
2018-10-11T21:27:16.087Z,5.10
2018-10-11T21:29:43.716Z,4.92
2018-10-11T21:32:11.325Z,4.45
2018-10-11T21:34:39.279Z,4.53
2018-10-11T21:37:06.884Z,4.57
2018-10-11T21:39:34.451Z,4.80
2018-10-11T21:42:02.036Z,4.78
2018-10-11T21:44:30.042Z,4.90
2018-10-11T21:46:57.853Z,5.08
2018-10-11T21:49:25.439Z,5.40
2018-10-11T21:51:53.051Z,4.47
2018-10-11T21:54:20.631Z,4.80
2018-10-11T21:56:48.229Z,5.15
2018-10-11T21:59:15.839Z,5.30
2018-10-11T22:01:43.448Z,4.62
2018-10-11T22:04:11.376Z,5.00
2018-10-11T22:06:39.020Z,4.60
2018-10-11T22:09:06.781Z,5.75
2018-10-11T22:11:34.394Z,5.62
2018-10-11T22:14:02.021Z,5.30
2018-10-11T22:16:29.641Z,5.17
2018-10-11T22:18:57.238Z,5.83
2018-10-11T22:21:24.997Z,5.20
2018-10-11T22:23:52.549Z,5.50
2018-10-11T22:26:20.206Z,6.53
2018-10-11T22:28:47.828Z,6.33
2018-10-11T22:31:15.550Z,5.30
2018-10-11T22:33:43.094Z,4.90
2018-10-11T22:36:12.058Z,5.05
2018-10-11T22:38:40.244Z,5.92
2018-10-11T22:41:08.522Z,6.10
2018-10-11T22:43:36.194Z,6.00
2018-10-11T22:46:03.883Z,5.60
2018-10-11T22:48:31.578Z,6.60
2018-10-11T22:50:59.180Z,5.10
2018-10-11T22:53:26.764Z,5.37
2018-10-11T22:55:54.355Z,5.35
2018-10-11T22:58:21.942Z,5.08
2018-10-11T23:00:49.699Z,5.37
2018-10-11T23:03:17.256Z,5.05
2018-10-11T23:05:45.023Z,5.70
2018-10-11T23:08:12.612Z,5.30
2018-10-11T23:10:40.185Z,5.40
2018-10-11T23:13:07.775Z,6.05
2018-10-11T23:15:35.399Z,5.37
2018-10-11T23:18:03.022Z,6.47
2018-10-11T23:20:30.629Z,6.45
2018-10-11T23:22:58.323Z,5.90
2018-10-11T23:25:25.886Z,5.80
2018-10-11T23:27:53.524Z,6.53
2018-10-11T23:30:21.188Z,6.83
2018-10-11T23:32:48.964Z,7.40
2018-10-11T23:35:16.540Z,7.65
2018-10-11T23:37:44.181Z,7.87
2018-10-11T23:40:11.896Z,7.15
2018-10-11T23:42:40.152Z,6.90
2018-10-11T23:45:09.117Z,6.43
2018-10-11T23:47:36.692Z,6.87
2018-10-11T23:50:04.589Z,8.68
2018-10-11T23:52:32.662Z,8.83
2018-10-11T23:55:00.216Z,8.30
2018-10-11T23:57:27.811Z,8.60
2018-10-11T23:59:55.427Z,7.73
